La rose des vents
Donnes mto: Semaine 19/11/07 - 25/11/07 (S 47)
Date Horaire Temp. E. Hum. E. P.atmo. Pluie Vent 1mn Direction Ensoleilleme Ev.Tr. Solaire P. de rose Temp au vent Rafales
19/11/2007 00:00 6,4 C 72 % 1009,6 hPa 0,0 l/m 6,8 km/h (2 Bft) O-NO 0,00 h 0,051 mm 0 W/m 1,6 C 5,2 C 10,2 km/h (2 Bft)
19/11/2007 01:00 5,9 C 71 % 1009,8 hPa 0,0 l/m 2,6 km/h (1 Bft) N-NO 0,00 h 0,025 mm 0 W/m 1,1 C 5,8 C 4,8 km/h (1 Bft)
19/11/2007 02:00 6,0 C 72 % 1010,3 hPa 0,0 l/m 4,1 km/h (1 Bft) N-NO 0,00 h 0,025 mm 0 W/m 1,3 C 5,6 C 6,2 km/h (2 Bft)
19/11/2007 03:00 6,5 C 70 % 1010,8 hPa 0,0 l/m 5,1 km/h (1 Bft) N-NO 0,00 h 0,025 mm 0 W/m 1,3 C 5,7 C 8,0 km/h (2 Bft)
19/11/2007 04:00 6,3 C 70 % 1011,0 hPa 0,0 l/m 3,1 km/h (1 Bft) N 0,00 h 0,025 mm 0 W/m 1,3 C 6,2 C 5,8 km/h (1 Bft)
19/11/2007 05:00 6,2 C 72 % 1011,5 hPa 0,0 l/m 2,3 km/h (1 Bft) N 0,00 h 0,025 mm 0 W/m 1,6 C 6,1 C 5,0 km/h (1 Bft)
19/11/2007 06:00 6,0 C 73 % 1012,3 hPa 0,0 l/m 5,8 km/h (2 Bft) N 0,00 h 0,025 mm 0 W/m 1,6 C 5,0 C 8,9 km/h (2 Bft)
19/11/2007 07:00 7,3 C 68 % 1012,9 hPa 0,0 l/m 10,0 km/h (2 Bft) N-NE 0,03 h 0,025 mm 14 W/m 1,8 C 5,5 C 16,8 km/h (3 Bft)
19/11/2007 08:00 8,3 C 65 % 1013,8 hPa 0,0 l/m 7,5 km/h (2 Bft) N-NE 0,08 h 0,051 mm 56 W/m 2,1 C 7,2 C 11,3 km/h (2 Bft)
19/11/2007 09:00 9,8 C 64 % 1014,9 hPa 0,0 l/m 4,9 km/h (1 Bft) N-NE 0,07 h 0,051 mm 77 W/m 3,3 C 9,5 C 7,6 km/h (2 Bft)
19/11/2007 10:00 10,7 C 62 % 1015,7 hPa 0,0 l/m 4,3 km/h (1 Bft) NE 0,25 h 0,051 mm 172 W/m 3,8 C 10,7 C 6,7 km/h (2 Bft)
19/11/2007 11:00 9,9 C 64 % 1016,4 hPa 0,0 l/m 4,9 km/h (1 Bft) NE 0,00 h 0,102 mm 57 W/m 3,4 C 9,6 C 7,4 km/h (2 Bft)
19/11/2007 12:00 11,1 C 63 % 1016,2 hPa 0,0 l/m 5,6 km/h (1 Bft) NE 0,22 h 0,051 mm 201 W/m 4,3 C 11,1 C 8,4 km/h (2 Bft)
19/11/2007 13:00 12,8 C 62 % 1016,0 hPa 0,0 l/m 8,7 km/h (2 Bft) E-NE 0,57 h 0,127 mm 287 W/m 5,7 C 12,8 C 12,4 km/h (3 Bft)
19/11/2007 14:00 11,8 C 66 % 1015,9 hPa 0,0 l/m 9,0 km/h (2 Bft) E-NE 0,50 h 0,178 mm 177 W/m 5,8 C 11,8 C 12,9 km/h (3 Bft)
19/11/2007 15:00 11,5 C 68 % 1015,4 hPa 0,0 l/m 9,8 km/h (2 Bft) E 0,00 h 0,127 mm 64 W/m 5,8 C 11,5 C 14,2 km/h (3 Bft)
19/11/2007 16:00 10,9 C 71 % 1015,9 hPa 0,0 l/m 14,4 km/h (3 Bft) E-NE 0,00 h 0,076 mm 12 W/m 5,8 C 10,9 C 19,8 km/h (3 Bft)
19/11/2007 17:00 10,7 C 69 % 1016,6 hPa 0,0 l/m 14,2 km/h (3 Bft) E-NE 0,00 h 0,051 mm 0 W/m 5,3 C 10,7 C 19,5 km/h (3 Bft)
19/11/2007 18:00 10,7 C 71 % 1016,8 hPa 0,0 l/m 13,1 km/h (3 Bft) E-NE 0,00 h 0,051 mm 0 W/m 5,6 C 10,7 C 18,7 km/h (3 Bft)
19/11/2007 19:00 10,6 C 69 % 1017,2 hPa 0,0 l/m 10,3 km/h (2 Bft) E-NE 0,00 h 0,051 mm 0 W/m 5,2 C 10,6 C 14,7 km/h (3 Bft)
19/11/2007 20:00 10,4 C 68 % 1017,6 hPa 0,0 l/m 6,8 km/h (2 Bft) NE 0,00 h 0,051 mm 0 W/m 4,8 C 10,4 C 10,3 km/h (2 Bft)
19/11/2007 21:00 10,3 C 68 % 1017,8 hPa 0,0 l/m 7,7 km/h (2 Bft) NE 0,00 h 0,051 mm 0 W/m 4,7 C 10,3 C 11,7 km/h (2 Bft)
19/11/2007 22:00 10,4 C 67 % 1018,2 hPa 0,0 l/m 6,1 km/h (2 Bft) N-NE 0,00 h 0,051 mm 0 W/m 4,5 C 10,4 C 9,3 km/h (2 Bft)
19/11/2007 23:00 10,2 C 67 % 1018,3 hPa 0,0 l/m 6,5 km/h (2 Bft) NE 0,00 h 0,051 mm 0 W/m 4,4 C 10,1 C 9,8 km/h (2 Bft)
20/11/2007 00:00 10,2 C 66 % 1018,3 hPa 0,0 l/m 5,0 km/h (1 Bft) N-NE 0,00 h 0,051 mm 0 W/m 4,2 C 10,2 C 8,0 km/h (2 Bft)
20/11/2007 01:00 10,1 C 65 % 1018,3 hPa 0,0 l/m 6,2 km/h (2 Bft) N-NE 0,00 h 0,051 mm 0 W/m 3,9 C 10,1 C 9,6 km/h (2 Bft)
20/11/2007 02:00 10,1 C 65 % 1017,9 hPa 0,0 l/m 6,6 km/h (2 Bft) NE 0,00 h 0,051 mm 0 W/m 3,7 C 9,7 C 10,1 km/h (2 Bft)
20/11/2007 03:00 10,0 C 64 % 1017,8 hPa 0,0 l/m 6,3 km/h (2 Bft) NE 0,00 h 0,051 mm 0 W/m 3,4 C 9,4 C 9,1 km/h (2 Bft)
20/11/2007 04:00 10,1 C 62 % 1017,7 hPa 0,0 l/m 6,4 km/h (2 Bft) NE 0,00 h 0,051 mm 0 W/m 3,3 C 9,9 C 9,0 km/h (2 Bft)
20/11/2007 05:00 9,8 C 63 % 1017,8 hPa 0,0 l/m 5,9 km/h (2 Bft) NE 0,00 h 0,051 mm 0 W/m 3,1 C 9,3 C 8,1 km/h (2 Bft)
20/11/2007 06:00 10,0 C 63 % 1018,1 hPa 0,0 l/m 7,5 km/h (2 Bft) NE 0,00 h 0,051 mm 0 W/m 3,3 C 9,4 C 11,0 km/h (2 Bft)
20/11/2007 07:00 9,7 C 64 % 1018,3 hPa 0,0 l/m 6,3 km/h (2 Bft) NE 0,00 h 0,051 mm 10 W/m 3,3 C 9,0 C 9,6 km/h (2 Bft)
20/11/2007 08:00 10,2 C 64 % 1018,9 hPa 0,0 l/m 6,2 km/h (2 Bft) NE 0,00 h 0,025 mm 22 W/m 3,6 C 10,1 C 9,4 km/h (2 Bft)
20/11/2007 09:00 10,7 C 63 % 1019,3 hPa 0,0 l/m 7,2 km/h (2 Bft) NE 0,00 h 0,051 mm 77 W/m 3,9 C 10,7 C 10,7 km/h (2 Bft)
20/11/2007 10:00 11,9 C 63 % 1019,5 hPa 0,0 l/m 11,1 km/h (2 Bft) NE 0,12 h 0,076 mm 128 W/m 5,1 C 11,9 C 16,9 km/h (3 Bft)
20/11/2007 11:00 12,6 C 65 % 1019,2 hPa 0,0 l/m 16,0 km/h (3 Bft) E-NE 0,53 h 0,127 mm 274 W/m 6,1 C 12,6 C 22,1 km/h (4 Bft)
20/11/2007 12:00 13,6 C 59 % 1018,8 hPa 0,0 l/m 19,8 km/h (3 Bft) E-NE 0,72 h 0,203 mm 370 W/m 5,7 C 13,6 C 26,6 km/h (4 Bft)
20/11/2007 13:00 13,8 C 58 % 1018,4 hPa 0,0 l/m 21,2 km/h (4 Bft) E-NE 0,57 h 0,279 mm 301 W/m 5,8 C 13,8 C 28,5 km/h (4 Bft)
20/11/2007 14:00 13,3 C 60 % 1018,2 hPa 0,0 l/m 21,4 km/h (4 Bft) E-NE 0,67 h 0,279 mm 251 W/m 5,7 C 13,3 C 28,9 km/h (5 Bft)
20/11/2007 15:00 12,2 C 62 % 1018,3 hPa 0,0 l/m 16,2 km/h (3 Bft) E-NE 0,00 h 0,229 mm 55 W/m 5,1 C 12,2 C 22,2 km/h (4 Bft)
20/11/2007 16:00 12,0 C 62 % 1018,0 hPa 0,0 l/m 13,6 km/h (3 Bft) E-NE 0,00 h 0,102 mm 24 W/m 4,9 C 12,0 C 19,2 km/h (3 Bft)
20/11/2007 17:00 11,7 C 63 % 1018,2 hPa 0,0 l/m 14,2 km/h (3 Bft) E-NE 0,00 h 0,076 mm 0 W/m 4,9 C 11,7 C 20,2 km/h (4 Bft)
20/11/2007 18:00 11,6 C 62 % 1018,3 hPa 0,0 l/m 11,2 km/h (2 Bft) E-NE 0,00 h 0,076 mm 0 W/m 4,5 C 11,6 C 16,4 km/h (3 Bft)
20/11/2007 19:00 11,1 C 63 % 1018,5 hPa 0,0 l/m 4,2 km/h (1 Bft) NE 0,00 h 0,076 mm 0 W/m 4,2 C 11,1 C 6,7 km/h (2 Bft)
20/11/2007 20:00 10,6 C 64 % 1018,5 hPa 0,0 l/m 5,0 km/h (1 Bft) N-NE 0,00 h 0,051 mm 0 W/m 4,0 C 10,6 C 7,9 km/h (2 Bft)
20/11/2007 21:00 11,2 C 60 % 1017,9 hPa 0,0 l/m 7,1 km/h (2 Bft) N-NE 0,00 h 0,051 mm 0 W/m 3,8 C 11,2 C 10,6 km/h (2 Bft)
20/11/2007 22:00 11,1 C 57 % 1017,6 hPa 0,0 l/m 7,5 km/h (2 Bft) N-NE 0,00 h 0,051 mm 0 W/m 3,0 C 11,1 C 11,0 km/h (2 Bft)
20/11/2007 23:00 11,5 C 57 % 1017,6 hPa 0,0 l/m 6,2 km/h (2 Bft) NE 0,00 h 0,051 mm 0 W/m 3,3 C 11,5 C 8,8 km/h (2 Bft)
21/11/2007 00:00 11,5 C 59 % 1016,9 hPa 0,0 l/m 6,0 km/h (2 Bft) N-NE 0,00 h 0,051 mm 0 W/m 3,7 C 11,5 C 9,1 km/h (2 Bft)
21/11/2007 01:00 11,0 C 58 % 1016,4 hPa 0,0 l/m 4,1 km/h (1 Bft) N-NE 0,00 h 0,051 mm 0 W/m 3,1 C 11,0 C 6,2 km/h (2 Bft)
21/11/2007 02:00 11,0 C 59 % 1016,1 hPa 0,0 l/m 6,5 km/h (2 Bft) N-NE 0,00 h 0,051 mm 0 W/m 3,3 C 11,0 C 9,3 km/h (2 Bft)
21/11/2007 03:00 11,4 C 59 % 1015,6 hPa 0,0 l/m 6,7 km/h (2 Bft) N-NE 0,00 h 0,051 mm 0 W/m 3,7 C 11,4 C 10,0 km/h (2 Bft)
21/11/2007 04:00 11,6 C 60 % 1015,3 hPa 0,0 l/m 6,0 km/h (2 Bft) NE 0,00 h 0,051 mm 0 W/m 4,0 C 11,6 C 8,7 km/h (2 Bft)
21/11/2007 05:00 11,7 C 62 % 1015,1 hPa 0,0 l/m 8,3 km/h (2 Bft) NE 0,00 h 0,051 mm 0 W/m 4,6 C 11,7 C 11,6 km/h (2 Bft)
21/11/2007 06:00 11,8 C 62 % 1014,7 hPa 0,0 l/m 8,3 km/h (2 Bft) NE 0,00 h 0,051 mm 0 W/m 4,7 C 11,8 C 11,9 km/h (2 Bft)
21/11/2007 07:00 11,4 C 62 % 1014,3 hPa 0,0 l/m 5,6 km/h (1 Bft) NE 0,00 h 0,051 mm 5 W/m 4,5 C 11,4 C 8,2 km/h (2 Bft)
21/11/2007 08:00 12,0 C 63 % 1015,2 hPa 0,0 l/m 3,0 km/h (1 Bft) E-NE 0,00 h 0,025 mm 16 W/m 5,1 C 12,0 C 5,0 km/h (1 Bft)
21/11/2007 09:00 12,0 C 71 % 1015,8 hPa 0,4 l/m 3,8 km/h (1 Bft) E-NE 0,00 h 0,025 mm 24 W/m 6,9 C 12,0 C 5,9 km/h (2 Bft)
21/11/2007 10:00 11,0 C 81 % 1015,9 hPa 1,0 l/m 2,5 km/h (1 Bft) N-NE 0,00 h 0,025 mm 23 W/m 7,9 C 11,0 C 4,2 km/h (1 Bft)
21/11/2007 11:00 10,8 C 88 % 1016,0 hPa 0,2 l/m 4,6 km/h (1 Bft) NE 0,00 h 0,025 mm 41 W/m 8,9 C 10,8 C 6,6 km/h (2 Bft)
21/11/2007 12:00 10,8 C 91 % 1015,0 hPa 0,0 l/m 5,2 km/h (1 Bft) N-NE 0,00 h 0,025 mm 58 W/m 9,4 C 10,8 C 7,6 km/h (2 Bft)
21/11/2007 13:00 10,9 C 91 % 1014,5 hPa 0,0 l/m 2,1 km/h (1 Bft) NE 0,00 h 0,025 mm 51 W/m 9,5 C 10,9 C 3,7 km/h (1 Bft)
21/11/2007 14:00 10,7 C 92 % 1013,8 hPa 0,0 l/m 7,1 km/h (2 Bft) E 0,00 h 0,025 mm 34 W/m 9,5 C 10,7 C 10,0 km/h (2 Bft)
21/11/2007 15:00 10,8 C 92 % 1014,6 hPa 0,0 l/m 6,0 km/h (2 Bft) N-NE 0,00 h 0,025 mm 41 W/m 9,5 C 10,8 C 8,7 km/h (2 Bft)
21/11/2007 16:00 11,3 C 91 % 1014,7 hPa 0,0 l/m 6,5 km/h (2 Bft) N-NE 0,00 h 0,025 mm 10 W/m 10,0 C 11,3 C 9,7 km/h (2 Bft)
21/11/2007 17:00 11,5 C 90 % 1014,3 hPa 0,0 l/m 4,5 km/h (1 Bft) NE 0,00 h 0,025 mm 0 W/m 9,9 C 11,5 C 6,3 km/h (2 Bft)
21/11/2007 18:00 11,2 C 89 % 1014,1 hPa 0,0 l/m 1,9 km/h (1 Bft) E-NE 0,00 h 0,000 mm 0 W/m 9,5 C 11,2 C 3,5 km/h (1 Bft)
21/11/2007 19:00 11,3 C 89 % 1014,5 hPa 0,0 l/m 5,8 km/h (2 Bft) E-NE 0,00 h 0,025 mm 0 W/m 9,5 C 11,3 C 7,8 km/h (2 Bft)
21/11/2007 20:00 11,7 C 87 % 1014,2 hPa 0,0 l/m 7,1 km/h (2 Bft) N-NE 0,00 h 0,025 mm 0 W/m 9,6 C 11,7 C 10,4 km/h (2 Bft)
21/11/2007 21:00 12,1 C 84 % 1014,0 hPa 0,0 l/m 5,7 km/h (1 Bft) N-NE 0,00 h 0,025 mm 0 W/m 9,5 C 12,1 C 8,2 km/h (2 Bft)
21/11/2007 22:00 12,7 C 81 % 1013,9 hPa 0,0 l/m 5,2 km/h (1 Bft) NE 0,00 h 0,025 mm 0 W/m 9,5 C 12,7 C 8,2 km/h (2 Bft)
21/11/2007 23:00 13,2 C 79 % 1013,5 hPa 0,0 l/m 7,8 km/h (2 Bft) E-NE 0,00 h 0,025 mm 0 W/m 9,7 C 13,2 C 10,8 km/h (2 Bft)
22/11/2007 00:00 13,1 C 81 % 1013,4 hPa 0,2 l/m 6,6 km/h (2 Bft) NE 0,00 h 0,025 mm 0 W/m 9,9 C 13,1 C 9,9 km/h (2 Bft)
22/11/2007 01:00 12,9 C 85 % 1013,0 hPa 0,2 l/m 4,6 km/h (1 Bft) NE 0,00 h 0,025 mm 0 W/m 10,5 C 12,9 C 7,1 km/h (2 Bft)
22/11/2007 02:00 12,5 C 88 % 1012,6 hPa 0,6 l/m 5,6 km/h (1 Bft) NE 0,00 h 0,025 mm 0 W/m 10,6 C 12,5 C 8,4 km/h (2 Bft)
22/11/2007 03:00 12,4 C 90 % 1012,0 hPa 1,0 l/m 4,3 km/h (1 Bft) NE 0,00 h 0,025 mm 0 W/m 10,9 C 12,4 C 6,8 km/h (2 Bft)
22/11/2007 04:00 12,2 C 91 % 1011,4 hPa 1,2 l/m 3,4 km/h (1 Bft) NE 0,00 h 0,025 mm 0 W/m 10,8 C 12,2 C 5,3 km/h (1 Bft)
22/11/2007 05:00 12,2 C 92 % 1010,9 hPa 1,6 l/m 4,0 km/h (1 Bft) N 0,00 h 0,025 mm 0 W/m 11,0 C 12,2 C 6,6 km/h (2 Bft)
22/11/2007 06:00 12,2 C 93 % 1010,6 hPa 5,4 l/m 4,7 km/h (1 Bft) NE 0,00 h 0,025 mm 0 W/m 11,1 C 12,2 C 6,7 km/h (2 Bft)
22/11/2007 07:00 12,2 C 94 % 1010,5 hPa 7,4 l/m 5,4 km/h (1 Bft) NE 0,00 h 0,025 mm 0 W/m 11,3 C 12,2 C 8,4 km/h (2 Bft)
22/11/2007 08:00 12,4 C 95 % 1010,5 hPa 6,8 l/m 5,3 km/h (1 Bft) NE 0,00 h 0,000 mm 8 W/m 11,7 C 12,4 C 7,8 km/h (2 Bft)
22/11/2007 09:00 12,6 C 95 % 1010,5 hPa 5,6 l/m 4,4 km/h (1 Bft) E-NE 0,00 h 0,000 mm 7 W/m 11,8 C 12,6 C 6,8 km/h (2 Bft)
22/11/2007 10:00 12,8 C 96 % 1010,7 hPa 6,6 l/m 7,4 km/h (2 Bft) NE 0,00 h 0,000 mm 8 W/m 12,2 C 12,8 C 11,4 km/h (2 Bft)
22/11/2007 11:00 12,8 C 96 % 1010,7 hPa 8,6 l/m 8,2 km/h (2 Bft) E-NE 0,00 h 0,025 mm 11 W/m 12,2 C 12,8 C 12,9 km/h (3 Bft)
22/11/2007 12:00 12,7 C 97 % 1010,3 hPa 5,6 l/m 11,4 km/h (2 Bft) E-NE 0,00 h 0,025 mm 16 W/m 12,3 C 12,7 C 16,1 km/h (3 Bft)
22/11/2007 13:00 12,5 C 97 % 1009,7 hPa 1,6 l/m 10,7 km/h (2 Bft) E-NE 0,00 h 0,025 mm 18 W/m 12,1 C 12,5 C 15,0 km/h (3 Bft)
22/11/2007 14:00 12,5 C 97 % 1009,3 hPa 1,2 l/m 1,9 km/h (1 Bft) NE 0,00 h 0,025 mm 18 W/m 12,0 C 12,5 C 3,4 km/h (1 Bft)
22/11/2007 15:00 12,5 C 97 % 1008,9 hPa 1,8 l/m 5,0 km/h (1 Bft) E-NE 0,00 h 0,000 mm 11 W/m 12,1 C 12,5 C 7,4 km/h (2 Bft)
22/11/2007 16:00 12,5 C 98 % 1008,8 hPa 2,0 l/m 6,6 km/h (2 Bft) NE 0,00 h 0,000 mm 5 W/m 12,1 C 12,5 C 9,2 km/h (2 Bft)
22/11/2007 17:00 12,2 C 98 % 1008,8 hPa 1,8 l/m 3,8 km/h (1 Bft) N-NE 0,00 h 0,000 mm 0 W/m 11,9 C 12,2 C 6,1 km/h (2 Bft)
22/11/2007 18:00 12,0 C 98 % 1008,6 hPa 2,2 l/m 4,0 km/h (1 Bft) N-NE 0,00 h 0,000 mm 0 W/m 11,7 C 12,0 C 6,2 km/h (2 Bft)
22/11/2007 19:00 12,0 C 98 % 1009,0 hPa 4,4 l/m 3,9 km/h (1 Bft) N 0,00 h 0,000 mm 0 W/m 11,7 C 12,0 C 6,1 km/h (2 Bft)
22/11/2007 20:00 12,0 C 98 % 1009,0 hPa 4,0 l/m 2,7 km/h (1 Bft) N 0,00 h 0,000 mm 0 W/m 11,7 C 12,0 C 4,9 km/h (1 Bft)
22/11/2007 21:00 12,1 C 98 % 1008,7 hPa 1,8 l/m 2,7 km/h (1 Bft) N-NE 0,00 h 0,000 mm 0 W/m 11,8 C 12,1 C 4,9 km/h (1 Bft)
22/11/2007 22:00 12,1 C 98 % 1008,7 hPa 0,6 l/m 3,4 km/h (1 Bft) N 0,00 h 0,000 mm 0 W/m 11,8 C 12,1 C 5,7 km/h (1 Bft)
22/11/2007 23:00 12,0 C 98 % 1008,6 hPa 0,0 l/m 3,6 km/h (1 Bft) N-NE 0,00 h 0,000 mm 0 W/m 11,8 C 12,0 C 5,4 km/h (1 Bft)
23/11/2007 00:00 12,1 C 99 % 1008,5 hPa 0,0 l/m 3,5 km/h (1 Bft) N-NE 0,00 h 0,000 mm 0 W/m 11,9 C 12,1 C 5,1 km/h (1 Bft)
23/11/2007 01:00 12,0 C 99 % 1008,4 hPa 1,0 l/m 6,1 km/h (2 Bft) NE 0,00 h 0,000 mm 0 W/m 11,8 C 12,0 C 8,7 km/h (2 Bft)
23/11/2007 02:00 12,0 C 100 % 1007,8 hPa 3,0 l/m 4,2 km/h (1 Bft) N-NE 0,00 h 0,000 mm 0 W/m 12,0 C 12,0 C 6,7 km/h (2 Bft)
23/11/2007 03:00 12,2 C 100 % 1007,9 hPa 3,8 l/m 3,3 km/h (1 Bft) S 0,00 h 0,000 mm 0 W/m 12,2 C 12,2 C 4,8 km/h (1 Bft)
23/11/2007 04:00 12,1 C 100 % 1007,3 hPa 0,8 l/m 3,0 km/h (1 Bft) N 0,00 h 0,000 mm 0 W/m 12,1 C 12,1 C 5,3 km/h (1 Bft)
23/11/2007 05:00 12,2 C 100 % 1007,4 hPa 0,2 l/m 2,4 km/h (1 Bft) N 0,00 h 0,000 mm 0 W/m 12,2 C 12,2 C 4,1 km/h (1 Bft)
23/11/2007 06:00 12,3 C 100 % 1007,8 hPa 0,2 l/m 4,1 km/h (1 Bft) N 0,00 h 0,000 mm 0 W/m 12,3 C 12,3 C 6,2 km/h (2 Bft)
23/11/2007 07:00 12,3 C 100 % 1007,9 hPa 0,0 l/m 4,6 km/h (1 Bft) E-NE 0,00 h 0,000 mm 7 W/m 12,3 C 12,3 C 6,5 km/h (2 Bft)
23/11/2007 08:00 12,3 C 100 % 1008,2 hPa 0,2 l/m 2,9 km/h (1 Bft) E-NE 0,00 h 0,000 mm 21 W/m 12,3 C 12,3 C 4,4 km/h (1 Bft)
23/11/2007 09:00 12,7 C 100 % 1008,7 hPa 0,0 l/m 1,8 km/h (1 Bft) NE 0,00 h 0,025 mm 55 W/m 12,7 C 12,7 C 3,8 km/h (1 Bft)
23/11/2007 10:00 13,2 C 100 % 1009,0 hPa 0,0 l/m 2,3 km/h (1 Bft) E 0,00 h 0,025 mm 78 W/m 13,2 C 13,2 C 4,1 km/h (1 Bft)
23/11/2007 11:00 13,5 C 99 % 1009,3 hPa 0,0 l/m 4,0 km/h (1 Bft) E 0,00 h 0,051 mm 52 W/m 13,4 C 13,5 C 6,1 km/h (2 Bft)
23/11/2007 12:00 13,5 C 98 % 1009,1 hPa 0,0 l/m 5,7 km/h (1 Bft) E-NE 0,00 h 0,025 mm 17 W/m 13,2 C 13,5 C 8,6 km/h (2 Bft)
23/11/2007 13:00 13,7 C 98 % 1009,0 hPa 0,0 l/m 11,5 km/h (2 Bft) E 0,00 h 0,025 mm 20 W/m 13,4 C 13,7 C 17,1 km/h (3 Bft)
23/11/2007 14:00 13,5 C 97 % 1008,9 hPa 0,0 l/m 16,3 km/h (3 Bft) E 0,00 h 0,025 mm 21 W/m 13,0 C 13,5 C 23,0 km/h (4 Bft)
23/11/2007 15:00 13,5 C 97 % 1009,0 hPa 0,0 l/m 13,2 km/h (3 Bft) E 0,00 h 0,025 mm 17 W/m 13,0 C 13,5 C 18,7 km/h (3 Bft)
23/11/2007 16:00 13,6 C 95 % 1009,1 hPa 0,0 l/m 13,2 km/h (3 Bft) E 0,00 h 0,025 mm 9 W/m 12,8 C 13,6 C 18,0 km/h (3 Bft)
23/11/2007 17:00 13,7 C 95 % 1009,7 hPa 0,0 l/m 11,8 km/h (2 Bft) E 0,00 h 0,025 mm 0 W/m 12,9 C 13,7 C 16,8 km/h (3 Bft)
23/11/2007 18:00 13,6 C 95 % 1010,2 hPa 0,0 l/m 10,9 km/h (2 Bft) E 0,00 h 0,025 mm 0 W/m 12,7 C 13,6 C 15,4 km/h (3 Bft)
23/11/2007 19:00 13,4 C 94 % 1010,6 hPa 0,0 l/m 13,8 km/h (3 Bft) E 0,00 h 0,025 mm 0 W/m 12,5 C 13,4 C 19,2 km/h (3 Bft)
23/11/2007 20:00 13,4 C 94 % 1010,6 hPa 0,0 l/m 7,1 km/h (2 Bft) E-NE 0,00 h 0,025 mm 0 W/m 12,5 C 13,4 C 10,3 km/h (2 Bft)
23/11/2007 21:00 13,4 C 94 % 1010,9 hPa 0,2 l/m 5,1 km/h (1 Bft) E 0,00 h 0,025 mm 0 W/m 12,5 C 13,4 C 7,3 km/h (2 Bft)
23/11/2007 22:00 13,4 C 94 % 1010,9 hPa 0,6 l/m 9,1 km/h (2 Bft) E 0,00 h 0,025 mm 0 W/m 12,5 C 13,4 C 14,2 km/h (3 Bft)
23/11/2007 23:00 13,3 C 95 % 1010,9 hPa 0,0 l/m 7,7 km/h (2 Bft) E 0,00 h 0,025 mm 0 W/m 12,6 C 13,3 C 12,9 km/h (3 Bft)
24/11/2007 00:00 13,2 C 96 % 1011,1 hPa 0,0 l/m 8,3 km/h (2 Bft) E 0,00 h 0,025 mm 0 W/m 12,5 C 13,2 C 12,2 km/h (2 Bft)
24/11/2007 01:00 11,9 C 96 % 1011,0 hPa 1,0 l/m 2,6 km/h (1 Bft) N 0,00 h 0,025 mm 0 W/m 11,3 C 11,9 C 4,9 km/h (1 Bft)
24/11/2007 02:00 11,0 C 97 % 1010,6 hPa 0,0 l/m 2,6 km/h (1 Bft) N 0,00 h 0,000 mm 0 W/m 10,5 C 11,0 C 3,7 km/h (1 Bft)
24/11/2007 03:00 11,1 C 97 % 1010,7 hPa 0,2 l/m 1,3 km/h (1 Bft) N 0,00 h 0,000 mm 0 W/m 10,7 C 11,1 C 2,7 km/h (1 Bft)
24/11/2007 04:00 10,9 C 97 % 1010,6 hPa 0,0 l/m 1,7 km/h (1 Bft) N 0,00 h 0,000 mm 0 W/m 10,5 C 10,9 C 3,7 km/h (1 Bft)
24/11/2007 05:00 10,8 C 97 % 1010,7 hPa 0,2 l/m 3,6 km/h (1 Bft) NO 0,00 h 0,000 mm 0 W/m 10,4 C 10,8 C 5,5 km/h (1 Bft)
24/11/2007 06:00 10,8 C 97 % 1010,8 hPa 0,0 l/m 1,5 km/h (1 Bft) NO 0,00 h 0,000 mm 0 W/m 10,4 C 10,8 C 2,5 km/h (1 Bft)
24/11/2007 07:00 10,8 C 97 % 1011,3 hPa 0,2 l/m 3,0 km/h (1 Bft) NO 0,00 h 0,000 mm 5 W/m 10,3 C 10,8 C 4,9 km/h (1 Bft)
24/11/2007 08:00 11,1 C 97 % 1011,8 hPa 0,0 l/m 1,4 km/h (1 Bft) NO 0,00 h 0,000 mm 27 W/m 10,6 C 11,1 C 2,9 km/h (1 Bft)
24/11/2007 09:00 11,7 C 97 % 1012,2 hPa 0,0 l/m 0,9 km/h (0 Bft) NO 0,00 h 0,025 mm 51 W/m 11,2 C 11,7 C 1,9 km/h (1 Bft)
24/11/2007 10:00 12,0 C 97 % 1012,5 hPa 0,2 l/m 5,5 km/h (1 Bft) O-NO 0,00 h 0,025 mm 89 W/m 11,5 C 12,0 C 7,8 km/h (2 Bft)
24/11/2007 11:00 12,9 C 96 % 1012,3 hPa 0,0 l/m 5,5 km/h (1 Bft) O-NO 0,00 h 0,051 mm 137 W/m 12,2 C 12,9 C 7,4 km/h (2 Bft)
24/11/2007 12:00 13,6 C 95 % 1012,3 hPa 0,0 l/m 2,0 km/h (1 Bft) O 0,00 h 0,076 mm 99 W/m 12,7 C 13,6 C 3,0 km/h (1 Bft)
24/11/2007 13:00 13,4 C 93 % 1012,5 hPa 0,0 l/m 8,0 km/h (2 Bft) SO 0,00 h 0,051 mm 86 W/m 12,3 C 13,4 C 10,7 km/h (2 Bft)
24/11/2007 14:00 12,8 C 92 % 1013,0 hPa 0,0 l/m 6,9 km/h (2 Bft) O-NO 0,00 h 0,051 mm 64 W/m 11,5 C 12,8 C 9,3 km/h (2 Bft)
24/11/2007 15:00 12,5 C 92 % 1013,3 hPa 0,6 l/m 3,8 km/h (1 Bft) O 0,00 h 0,051 mm 17 W/m 11,2 C 12,5 C 5,5 km/h (1 Bft)
24/11/2007 16:00 12,0 C 93 % 1013,7 hPa 0,0 l/m 6,2 km/h (2 Bft) O 0,12 h 0,025 mm 15 W/m 10,9 C 12,0 C 8,2 km/h (2 Bft)
24/11/2007 17:00 11,8 C 93 % 1014,0 hPa 0,0 l/m 3,9 km/h (1 Bft) O 0,00 h 0,025 mm 0 W/m 10,7 C 11,8 C 5,4 km/h (1 Bft)
24/11/2007 18:00 11,6 C 94 % 1014,5 hPa 0,0 l/m 0,7 km/h (0 Bft) SE 0,00 h 0,000 mm 0 W/m 10,6 C 11,6 C 1,2 km/h (1 Bft)
24/11/2007 19:00 11,3 C 94 % 1015,0 hPa 0,0 l/m 1,5 km/h (1 Bft) SE 0,00 h 0,000 mm 0 W/m 10,4 C 11,3 C 2,4 km/h (1 Bft)
24/11/2007 20:00 10,7 C 94 % 1015,6 hPa 0,0 l/m 0,4 km/h (0 Bft) SE 0,00 h 0,000 mm 0 W/m 9,8 C 10,7 C 0,6 km/h (0 Bft)
24/11/2007 21:00 10,3 C 94 % 1016,0 hPa 0,0 l/m 5,5 km/h (1 Bft) O-NO 0,00 h 0,000 mm 0 W/m 9,4 C 10,3 C 7,5 km/h (2 Bft)
24/11/2007 22:00 9,8 C 95 % 1016,4 hPa 0,0 l/m 5,3 km/h (1 Bft) O-NO 0,00 h 0,025 mm 0 W/m 9,1 C 9,5 C 8,1 km/h (2 Bft)
24/11/2007 23:00 9,7 C 94 % 1016,8 hPa 0,0 l/m 6,5 km/h (2 Bft) O-NO 0,00 h 0,000 mm 0 W/m 8,8 C 9,0 C 9,6 km/h (2 Bft)
25/11/2007 00:00 9,5 C 94 % 1017,1 hPa 0,0 l/m 8,1 km/h (2 Bft) O-NO 0,00 h 0,025 mm 0 W/m 8,6 C 8,5 C 11,7 km/h (2 Bft)
25/11/2007 01:00 9,6 C 92 % 1017,2 hPa 0,0 l/m 5,8 km/h (2 Bft) O-NO 0,00 h 0,025 mm 0 W/m 8,3 C 9,0 C 9,0 km/h (2 Bft)
25/11/2007 02:00 8,9 C 91 % 1017,4 hPa 0,0 l/m 5,8 km/h (2 Bft) O-NO 0,00 h 0,025 mm 0 W/m 7,5 C 8,3 C 8,1 km/h (2 Bft)
25/11/2007 03:00 9,1 C 90 % 1017,5 hPa 0,0 l/m 5,9 km/h (2 Bft) O-NO 0,00 h 0,025 mm 0 W/m 7,5 C 8,5 C 8,6 km/h (2 Bft)
25/11/2007 04:00 9,0 C 88 % 1017,4 hPa 0,0 l/m 8,2 km/h (2 Bft) O-NO 0,00 h 0,025 mm 0 W/m 7,1 C 7,9 C 11,2 km/h (2 Bft)
25/11/2007 05:00 8,9 C 87 % 1017,5 hPa 0,0 l/m 7,4 km/h (2 Bft) O-NO 0,00 h 0,025 mm 0 W/m 6,9 C 7,9 C 10,5 km/h (2 Bft)
25/11/2007 06:00 8,7 C 87 % 1017,8 hPa 0,0 l/m 8,2 km/h (2 Bft) O-NO 0,00 h 0,025 mm 0 W/m 6,7 C 7,5 C 11,2 km/h (2 Bft)
25/11/2007 07:00 8,6 C 87 % 1017,8 hPa 0,0 l/m 6,2 km/h (2 Bft) O-NO 0,10 h 0,025 mm 11 W/m 6,5 C 7,7 C 8,9 km/h (2 Bft)
25/11/2007 08:00 9,7 C 84 % 1018,1 hPa 0,0 l/m 2,1 km/h (1 Bft) O-NO 0,78 h 0,025 mm 93 W/m 7,1 C 9,7 C 3,5 km/h (1 Bft)
25/11/2007 09:00 12,5 C 75 % 1018,0 hPa 0,0 l/m 0,1 km/h (0 Bft) O-NO 1,00 h 0,051 mm 221 W/m 8,2 C 12,5 C 0,2 km/h (0 Bft)
25/11/2007 10:00 14,3 C 75 % 1018,0 hPa 0,0 l/m 0,7 km/h (0 Bft) E 1,00 h 0,102 mm 319 W/m 9,8 C 14,3 C 2,0 km/h (1 Bft)
25/11/2007 11:00 14,6 C 79 % 1018,0 hPa 0,0 l/m 6,5 km/h (2 Bft) S 0,53 h 0,178 mm 294 W/m 10,9 C 14,6 C 9,6 km/h (2 Bft)
25/11/2007 12:00 14,4 C 78 % 1017,5 hPa 0,0 l/m 13,7 km/h (3 Bft) SO 0,77 h 0,152 mm 334 W/m 10,7 C 14,4 C 18,0 km/h (3 Bft)
25/11/2007 13:00 15,5 C 72 % 1016,8 hPa 0,0 l/m 10,4 km/h (2 Bft) SO 1,00 h 0,229 mm 365 W/m 10,5 C 15,5 C 14,3 km/h (3 Bft)
25/11/2007 14:00 16,1 C 71 % 1015,8 hPa 0,0 l/m 6,3 km/h (2 Bft) S 0,83 h 0,229 mm 282 W/m 10,8 C 16,1 C 9,3 km/h (2 Bft)
25/11/2007 15:00 14,8 C 80 % 1015,2 hPa 0,0 l/m 13,8 km/h (3 Bft) S-SO 0,87 h 0,178 mm 160 W/m 11,4 C 14,8 C 18,2 km/h (3 Bft)
25/11/2007 16:00 13,6 C 86 % 1015,0 hPa 0,0 l/m 9,1 km/h (2 Bft) SO 0,82 h 0,127 mm 58 W/m 11,3 C 13,6 C 12,4 km/h (3 Bft)
25/11/2007 17:00 12,3 C 90 % 1014,9 hPa 0,0 l/m 4,8 km/h (1 Bft) O-SO 0,00 h 0,051 mm 5 W/m 10,7 C 12,3 C 7,0 km/h (2 Bft)
25/11/2007 18:00 12,1 C 91 % 1015,0 hPa 0,0 l/m 1,8 km/h (1 Bft) O 0,00 h 0,000 mm 0 W/m 10,7 C 12,1 C 3,0 km/h (1 Bft)
25/11/2007 19:00 11,8 C 91 % 1015,1 hPa 0,0 l/m 0,6 km/h (0 Bft) O 0,00 h 0,025 mm 0 W/m 10,3 C 11,8 C 1,4 km/h (1 Bft)
25/11/2007 20:00 10,9 C 92 % 1014,7 hPa 0,0 l/m 1,0 km/h (0 Bft) O 0,00 h 0,000 mm 0 W/m 9,6 C 10,9 C 2,3 km/h (1 Bft)
25/11/2007 21:00 10,5 C 92 % 1014,8 hPa 0,0 l/m 1,3 km/h (1 Bft) N 0,00 h 0,000 mm 0 W/m 9,3 C 10,5 C 2,5 km/h (1 Bft)
25/11/2007 22:00 10,2 C 92 % 1014,6 hPa 0,0 l/m 1,6 km/h (1 Bft) NO 0,00 h 0,000 mm 0 W/m 9,0 C 10,2 C 2,5 km/h (1 Bft)
25/11/2007 23:00 9,6 C 93 % 1014,9 hPa 0,0 l/m 4,6 km/h (1 Bft) N 0,00 h 0,000 mm 0 W/m 8,6 C 9,3 C 7,7 km/h (2 Bft)
Min-Date _ 19/11/07 20/11/07 23/11/07 - 19/11/07 - - - - 19/11/07 19/11/07 19/11/07
_ Min-Heure 02:01 13:02 04:45 - 01:18 - - - - 02:56 06:50 01:32
Minimum _ 5,7 C 55 % 1006,9 hPa - 0,0 km/h (0 Bft) - - - - 0,5 C 3,8 C 0,0 km/h (0 Bft)
Max-Date _ 25/11/07 22/11/07 20/11/07 22/11/07 20/11/07 - 19/11/07 20/11/07 20/11/07 23/11/07 25/11/07 20/11/07
_ Max-Heure 14:32 20:06 10:30 11:27 13:02 - 07:41 13:00 12:55 10:58 14:32 13:02
Maximum _ 16,3 C 100 % 1019,5 hPa 8,6 l/m 27,4 km/h
E-NE (4 Bft)
- 0,02 h 0,279 mm 589 W/m 13,7 C 16,3 C 38,6 km/h
E-NE (5 Bft)
Moyenne _ 11,5 C 83 % 1013,8 hPa #86,2 l/m 6,3 km/h (2 Bft) NE #12:08 h #7,094 mm 87 W/m 8,5 C 11,4 C 9,2 km/h (2 Bft)
Roquefort les pins